createdAt,value
2023-04-15T00:00:36.137Z,19591.4609
2023-04-15T00:01:37.671Z,19589.6152
2023-04-15T00:02:39.156Z,19576.3086
2023-04-15T00:03:40.869Z,19554.4609
2023-04-15T00:04:41.982Z,19561.2305
2023-04-15T00:05:43.406Z,19565.1543
2023-04-15T00:06:44.809Z,19559.8457
2023-04-15T00:07:47.215Z,19556.9238
2023-04-15T00:08:47.688Z,19557.0000
2023-04-15T00:09:54.195Z,19559.5391
2023-04-15T00:10:50.606Z,19565.0000
2023-04-15T00:11:52.031Z,19567.0000
2023-04-15T00:12:53.437Z,19579.9238
2023-04-15T00:13:54.962Z,19578.3086
2023-04-15T00:14:56.359Z,19574.1543
2023-04-15T00:15:57.831Z,19568.6914
2023-04-15T00:16:59.250Z,19576.3848
2023-04-15T00:18:00.730Z,19575.2305
2023-04-15T00:19:02.363Z,19582.6152
2023-04-15T00:20:03.606Z,19589.0000
2023-04-15T00:21:05.044Z,19587.3848
2023-04-15T00:22:06.406Z,19581.0762
2023-04-15T00:23:07.834Z,19583.6152
2023-04-15T00:24:09.425Z,19586.5391
2023-04-15T00:25:10.798Z,19585.9238
2023-04-15T00:26:12.287Z,19592.1543
2023-04-15T00:27:13.655Z,19606.6152
2023-04-15T00:28:15.173Z,19601.8457
2023-04-15T00:29:16.577Z,19586.7695
2023-04-15T00:30:18.058Z,19565.9238
2023-04-15T00:31:19.442Z,19564.0000
2023-04-15T00:32:20.882Z,19572.5391
2023-04-15T00:33:22.306Z,19575.4609
2023-04-15T00:34:24.235Z,19569.5391
2023-04-15T00:35:25.219Z,19565.0762
2023-04-15T00:36:26.696Z,19561.5391
2023-04-15T00:37:28.099Z,19562.4609
2023-04-15T00:38:29.518Z,19568.4609
2023-04-15T00:39:31.202Z,19574.7695
2023-04-15T00:40:32.478Z,19583.8457
2023-04-15T00:41:34.599Z,19583.0762
2023-04-15T00:42:35.370Z,19585.3848
2023-04-15T00:43:36.687Z,19580.6914
2023-04-15T00:44:38.271Z,19580.0762
2023-04-15T00:45:39.670Z,19580.5391
2023-04-15T00:46:41.658Z,19590.0762
2023-04-15T00:47:42.507Z,19598.2305
2023-04-15T00:48:44.690Z,19593.4609
2023-04-15T00:49:45.516Z,19602.1543
2023-04-15T00:50:47.255Z,19578.1543
2023-04-15T00:51:48.338Z,19559.0000
2023-04-15T00:52:49.753Z,19562.8457
2023-04-15T00:53:51.166Z,19570.1543
2023-04-15T00:54:52.671Z,19569.3086
2023-04-15T00:55:54.655Z,19570.0762
2023-04-15T00:56:55.676Z,19562.5391
2023-04-15T00:57:57.040Z,19565.0000
2023-04-15T00:58:58.668Z,19565.0000
2023-04-15T00:59:59.929Z,19569.1543
2023-04-15T01:01:01.424Z,19580.4609
2023-04-15T01:02:02.904Z,19580.8457
2023-04-15T01:03:04.351Z,19579.1543
2023-04-15T01:04:06.706Z,19574.8457
2023-04-15T01:05:07.138Z,19576.8457
2023-04-15T01:06:08.748Z,19582.6152
2023-04-15T01:07:10.305Z,19585.4609
2023-04-15T01:08:11.411Z,19598.8457
2023-04-15T01:09:12.918Z,19596.1543
2023-04-15T01:10:14.274Z,19590.9238
2023-04-15T01:11:16.214Z,19588.0000
2023-04-15T01:12:17.222Z,19590.9238
2023-04-15T01:13:18.685Z,19593.4609
2023-04-15T01:14:22.661Z,19602.1543
2023-04-15T01:15:21.541Z,19609.6914
2023-04-15T01:16:23.054Z,19607.1543
2023-04-15T01:17:24.506Z,19579.6914
2023-04-15T01:18:25.854Z,19560.5391
2023-04-15T01:19:27.296Z,19569.8457
2023-04-15T01:20:28.720Z,19576.2305
2023-04-15T01:21:30.291Z,19578.4609
2023-04-15T01:22:32.129Z,19582.8457
2023-04-15T01:23:33.040Z,19570.8457
2023-04-15T01:24:34.404Z,19572.6152
2023-04-15T01:25:35.933Z,19568.8457
2023-04-15T01:26:37.401Z,19571.8457
2023-04-15T01:27:38.857Z,19586.6914
2023-04-15T01:28:40.242Z,19594.7695
2023-04-15T01:29:41.726Z,19593.6914
2023-04-15T01:30:43.091Z,19582.7695
2023-04-15T01:31:44.659Z,19587.9238
2023-04-15T01:32:46.090Z,19591.6152
2023-04-15T01:33:47.433Z,19591.3086
2023-04-15T01:34:51.690Z,19597.5391
2023-04-15T01:35:51.215Z,19603.3848
2023-04-15T01:36:51.756Z,19597.4609
2023-04-15T01:37:53.257Z,19596.3086
2023-04-15T01:38:54.692Z,19593.3848
2023-04-15T01:39:56.082Z,19590.1543
2023-04-15T01:40:57.647Z,19565.9238
2023-04-15T01:41:58.964Z,19564.7695
2023-04-15T01:43:00.469Z,19573.3086
2023-04-15T01:44:01.831Z,19564.0000
2023-04-15T01:45:03.286Z,19569.8457
2023-04-15T01:46:04.721Z,19562.8457
2023-04-15T01:47:06.169Z,19568.6152
2023-04-15T01:48:07.648Z,19570.6152
2023-04-15T01:49:09.181Z,19575.5391
2023-04-15T01:50:10.472Z,19587.1543
2023-04-15T01:51:11.924Z,19585.2305
2023-04-15T01:52:13.327Z,19578.6914
2023-04-15T01:53:14.886Z,19577.6152
2023-04-15T01:54:16.237Z,19582.5391
2023-04-15T01:55:17.781Z,19586.2305
2023-04-15T01:56:19.140Z,19592.6914
2023-04-15T01:57:20.559Z,19606.3086
2023-04-15T01:58:22.214Z,19596.4609
2023-04-15T01:59:23.658Z,19593.4609
2023-04-15T02:00:25.610Z,19592.0000
2023-04-15T02:01:26.484Z,19590.6152
2023-04-15T02:02:28.678Z,19597.3848
2023-04-15T02:03:29.367Z,19601.3086
2023-04-15T02:04:31.153Z,19603.8457
2023-04-15T02:05:32.122Z,19603.0000
2023-04-15T02:06:33.615Z,19608.1543
2023-04-15T02:07:35.052Z,19615.6152
2023-04-15T02:08:36.602Z,19585.6914
2023-04-15T02:09:37.934Z,19569.6152
2023-04-15T02:10:39.666Z,19571.0000
2023-04-15T02:11:40.765Z,19569.6914
2023-04-15T02:12:42.206Z,19565.4609
2023-04-15T02:13:43.725Z,19562.6914
2023-04-15T02:14:45.100Z,19561.6152
2023-04-15T02:15:46.537Z,19564.3848
2023-04-15T02:16:48.011Z,19567.4609
2023-04-15T02:17:50.200Z,19576.3848
2023-04-15T02:18:50.868Z,19588.6914
2023-04-15T02:19:52.716Z,19579.1543
2023-04-15T02:20:53.731Z,19582.0000
2023-04-15T02:21:55.164Z,19578.2305
2023-04-15T02:22:56.562Z,19573.0762
2023-04-15T02:23:58.141Z,19580.6152
2023-04-15T02:24:59.687Z,19582.9238
2023-04-15T02:26:00.924Z,19586.2305
2023-04-15T02:27:02.334Z,19588.8457
2023-04-15T02:28:03.802Z,19581.6914
2023-04-15T02:29:05.293Z,19589.0000
2023-04-15T02:30:06.777Z,19570.3848
2023-04-15T02:31:08.218Z,19557.5391
2023-04-15T02:32:09.633Z,19565.6152
2023-04-15T02:33:11.023Z,19567.2305
2023-04-15T02:34:12.427Z,19570.0000
2023-04-15T02:35:13.978Z,19568.2305
2023-04-15T02:36:15.686Z,19565.3086
2023-04-15T02:37:18.715Z,19561.0762
2023-04-15T02:38:18.187Z,19557.9238
2023-04-15T02:39:20.611Z,19567.0000
2023-04-15T02:40:21.221Z,19572.6914
2023-04-15T02:41:22.527Z,19578.6152
2023-04-15T02:42:24.164Z,19580.7695
2023-04-15T02:43:25.380Z,19568.5391
2023-04-15T02:44:26.844Z,19575.7695
2023-04-15T02:45:28.281Z,19575.6152
2023-04-15T02:46:29.855Z,19578.3086
2023-04-15T02:47:31.221Z,19590.6914
2023-04-15T02:48:32.632Z,19583.6152
2023-04-15T02:49:34.043Z,19584.6914
2023-04-15T02:50:36.151Z,19577.4609
2023-04-15T02:51:37.016Z,19576.0762
2023-04-15T02:52:38.453Z,19580.2305
2023-04-15T02:53:39.883Z,19589.8457
2023-04-15T02:54:41.288Z,19592.0762
2023-04-15T02:55:42.699Z,19590.6152
2023-04-15T02:56:44.158Z,19592.3848
2023-04-15T02:57:45.568Z,19586.6152
2023-04-15T02:58:47.105Z,19589.5391
2023-04-15T02:59:48.466Z,19585.5391
2023-04-15T03:00:49.940Z,19579.3086
2023-04-15T03:01:51.564Z,19578.8457
2023-04-15T03:02:53.329Z,19578.7695
2023-04-15T03:03:54.219Z,19580.0000
2023-04-15T03:04:55.652Z,19581.8457
2023-04-15T03:05:57.088Z,19579.6914
2023-04-15T03:06:58.731Z,19586.1543
2023-04-15T03:08:00.059Z,19580.7695
2023-04-15T03:09:01.692Z,19578.0762
2023-04-15T03:10:02.817Z,19582.3848
2023-04-15T03:11:04.321Z,19584.4609
2023-04-15T03:12:06.138Z,19579.6152
2023-04-15T03:13:07.247Z,19581.8457
2023-04-15T03:14:08.632Z,19583.4609
2023-04-15T03:15:10.048Z,19581.6152
2023-04-15T03:16:12.139Z,19586.4609
2023-04-15T03:17:13.047Z,19582.7695
2023-04-15T03:18:14.468Z,19582.1543
2023-04-15T03:19:16.185Z,19582.6914
2023-04-15T03:20:17.284Z,19583.3848
2023-04-15T03:21:18.835Z,19585.2305
2023-04-15T03:22:20.254Z,19589.0000
2023-04-15T03:23:21.735Z,19589.6914
2023-04-15T03:24:23.139Z,19594.2305
2023-04-15T03:25:25.232Z,19592.7695
2023-04-15T03:26:25.969Z,19588.3848
2023-04-15T03:27:27.489Z,19584.6152
2023-04-15T03:28:28.912Z,19584.8457
2023-04-15T03:29:30.386Z,19581.1543
2023-04-15T03:30:31.796Z,19583.2305
2023-04-15T03:31:33.314Z,19582.2305
2023-04-15T03:32:34.682Z,19579.3848
2023-04-15T03:33:36.265Z,19581.6152
2023-04-15T03:34:37.741Z,19581.3086
2023-04-15T03:35:39.012Z,19588.0000
2023-04-15T03:36:40.407Z,19586.6152
2023-04-15T03:37:44.725Z,19579.1543
2023-04-15T03:38:43.285Z,19579.4609
2023-04-15T03:39:44.767Z,19585.3086
2023-04-15T03:40:46.131Z,19585.3848
2023-04-15T03:41:47.593Z,19588.1543
2023-04-15T03:42:49.050Z,19555.9238
2023-04-15T03:43:50.775Z,19556.7695
2023-04-15T03:44:51.912Z,19551.0000
2023-04-15T03:45:53.380Z,19543.1543
2023-04-15T03:46:54.825Z,19542.5391
2023-04-15T03:47:56.555Z,19545.8457
2023-04-15T03:48:57.739Z,19551.6152
2023-04-15T03:49:59.151Z,19546.9238
2023-04-15T03:51:00.598Z,19545.0000
2023-04-15T03:52:01.965Z,19542.2305
2023-04-15T03:53:03.493Z,19543.8457
2023-04-15T03:54:04.912Z,19550.3848
2023-04-15T03:55:06.393Z,19547.0000
2023-04-15T03:56:07.743Z,19554.0762
2023-04-15T03:57:09.227Z,19549.2305
2023-04-15T03:58:10.607Z,19557.2305
2023-04-15T03:59:12.125Z,19555.7695
2023-04-15T04:00:13.562Z,19551.3086
2023-04-15T04:01:14.987Z,19554.3086
2023-04-15T04:02:16.465Z,19557.3848
2023-04-15T04:03:18.017Z,19560.0762
2023-04-15T04:04:19.357Z,19565.0762
2023-04-15T04:05:20.780Z,19561.2305
2023-04-15T04:06:22.150Z,19555.0000
2023-04-15T04:07:23.633Z,19564.6914
2023-04-15T04:08:25.011Z,19565.3086
2023-04-15T04:09:26.546Z,19563.5391
2023-04-15T04:10:27.960Z,19559.6914
2023-04-15T04:11:29.370Z,19561.6914
2023-04-15T04:12:30.809Z,19570.0762
2023-04-15T04:13:32.251Z,19574.7695
2023-04-15T04:14:33.719Z,19571.3086
2023-04-15T04:15:35.219Z,19573.6152
2023-04-15T04:16:36.637Z,19571.4609
2023-04-15T04:17:38.068Z,19575.0000
2023-04-15T04:18:39.406Z,19569.3086
2023-04-15T04:19:40.916Z,19576.4609
2023-04-15T04:20:42.805Z,19582.0762
2023-04-15T04:21:43.796Z,19584.5391
2023-04-15T04:22:45.233Z,19576.3086
2023-04-15T04:23:46.666Z,19573.5391
2023-04-15T04:24:48.105Z,19575.3086
2023-04-15T04:25:49.576Z,19581.4609
2023-04-15T04:26:50.893Z,19583.6914
2023-04-15T04:27:52.421Z,19583.3086
2023-04-15T04:28:53.741Z,19584.0000
2023-04-15T04:29:55.248Z,19575.7695
2023-04-15T04:30:56.714Z,19587.8457
2023-04-15T04:31:58.148Z,19588.5391
2023-04-15T04:32:59.594Z,19591.7695
2023-04-15T04:34:00.979Z,19595.3848
2023-04-15T04:35:02.403Z,19586.7695
2023-04-15T04:36:03.877Z,19587.5391
2023-04-15T04:37:05.229Z,19596.1543
2023-04-15T04:38:06.761Z,19599.5391
2023-04-15T04:39:08.078Z,19608.5391
2023-04-15T04:40:09.636Z,19603.5391
2023-04-15T04:41:11.081Z,19605.2305
2023-04-15T04:42:12.472Z,19602.6152
2023-04-15T04:43:13.893Z,19605.0762
2023-04-15T04:44:15.316Z,19602.3086
2023-04-15T04:45:16.781Z,19603.0762
2023-04-15T04:46:18.349Z,19607.6152
2023-04-15T04:47:19.648Z,19609.6152
2023-04-15T04:48:21.070Z,19607.9238
2023-04-15T04:49:22.464Z,19610.9238
2023-04-15T04:50:24.025Z,19611.6152
2023-04-15T04:51:25.478Z,19607.4609
2023-04-15T04:52:26.777Z,19607.0762
2023-04-15T04:53:28.303Z,19610.5391
2023-04-15T04:54:29.685Z,19606.5391
2023-04-15T04:55:31.361Z,19600.1543
2023-04-15T04:56:32.609Z,19602.0762
2023-04-15T04:57:34.028Z,19601.1543
2023-04-15T04:58:35.559Z,19598.3086
2023-04-15T04:59:37.084Z,19591.4609
2023-04-15T05:00:38.532Z,19590.0762
2023-04-15T05:01:39.983Z,19575.3848
2023-04-15T05:02:41.435Z,19541.0000
2023-04-15T05:03:42.946Z,19525.7695
2023-04-15T05:04:44.255Z,19520.8457
2023-04-15T05:05:45.651Z,19523.4609
2023-04-15T05:06:47.111Z,19512.0762
2023-04-15T05:07:48.580Z,19509.8457
2023-04-15T05:08:49.857Z,19525.9238
2023-04-15T05:09:51.393Z,19524.8457
2023-04-15T05:10:52.777Z,19518.0762
2023-04-15T05:11:54.347Z,19512.0762
2023-04-15T05:12:55.630Z,19496.0000
2023-04-15T05:13:57.107Z,19501.3848
2023-04-15T05:14:58.476Z,19511.9238
2023-04-15T05:16:00.118Z,19529.3086
2023-04-15T05:17:01.756Z,19510.8457
2023-04-15T05:18:02.929Z,19498.1543
2023-04-15T05:19:04.296Z,19491.0000
2023-04-15T05:20:06.268Z,19495.0762
2023-04-15T05:21:07.201Z,19497.3086
2023-04-15T05:22:08.580Z,19522.2305
2023-04-15T05:23:10.051Z,19511.0762
2023-04-15T05:24:11.484Z,19494.6152
2023-04-15T05:25:12.930Z,19486.4609
2023-04-15T05:26:14.347Z,19496.9238
2023-04-15T05:27:16.333Z,19504.0762
2023-04-15T05:28:17.200Z,19518.1543
2023-04-15T05:29:18.660Z,19505.7695
2023-04-15T05:30:20.043Z,19489.4609
2023-04-15T05:31:21.646Z,19483.9238
2023-04-15T05:32:23.324Z,19478.3086
2023-04-15T05:33:24.408Z,19494.9238
2023-04-15T05:34:25.785Z,19517.2305
2023-04-15T05:35:27.280Z,19498.1543
2023-04-15T05:36:28.757Z,19478.8457
2023-04-15T05:37:30.216Z,19472.5391
2023-04-15T05:38:31.564Z,19491.0000
2023-04-15T05:39:33.029Z,19503.6152
2023-04-15T05:40:34.429Z,19518.3086
2023-04-15T05:41:35.987Z,19496.3848
2023-04-15T05:42:37.360Z,19480.0000
2023-04-15T05:43:38.778Z,19479.4609
2023-04-15T05:44:40.209Z,19490.5391
2023-04-15T05:45:41.687Z,19502.9238
2023-04-15T05:46:43.111Z,19504.9238
2023-04-15T05:47:44.696Z,19486.0000
2023-04-15T05:48:45.920Z,19466.9238
2023-04-15T05:49:47.434Z,19471.3848
2023-04-15T05:50:48.822Z,19491.5391
2023-04-15T05:51:50.301Z,19509.4609
2023-04-15T05:52:51.688Z,19499.0762
2023-04-15T05:53:53.161Z,19475.1543
2023-04-15T05:54:54.952Z,19467.6914
2023-04-15T05:55:56.002Z,19492.6914
2023-04-15T05:56:57.545Z,19492.9238
2023-04-15T05:57:58.887Z,19503.0762
2023-04-15T05:59:00.592Z,19483.7695
2023-04-15T06:00:01.805Z,19464.0000
2023-04-15T06:01:03.299Z,19480.6152
2023-04-15T06:02:04.825Z,19488.6152
2023-04-15T06:03:06.198Z,19501.7695
2023-04-15T06:04:07.615Z,19486.0762
2023-04-15T06:05:09.017Z,19471.9238
2023-04-15T06:06:10.362Z,19472.6914
2023-04-15T06:07:11.933Z,19483.3848
2023-04-15T06:08:13.296Z,19479.5391
2023-04-15T06:09:15.334Z,19483.6914
2023-04-15T06:10:16.129Z,19474.7695
2023-04-15T06:11:17.627Z,19461.5391
2023-04-15T06:12:18.990Z,19475.6152
2023-04-15T06:13:20.496Z,19482.1543
2023-04-15T06:14:21.871Z,19487.0000
2023-04-15T06:15:23.355Z,19473.7695
2023-04-15T06:16:24.775Z,19455.0000
2023-04-15T06:17:26.209Z,19459.0762
2023-04-15T06:18:27.668Z,19473.9238
2023-04-15T06:19:29.091Z,19478.4609
2023-04-15T06:20:30.436Z,19491.8457
2023-04-15T06:21:31.939Z,19469.3848
2023-04-15T06:22:33.361Z,19454.2305
2023-04-15T06:23:35.310Z,19468.0762
2023-04-15T06:24:36.220Z,19480.4609
2023-04-15T06:25:37.672Z,19485.0000
2023-04-15T06:26:39.068Z,19469.6914
2023-04-15T06:27:40.588Z,19454.1543
2023-04-15T06:28:42.029Z,19463.1543
2023-04-15T06:29:43.495Z,19467.4609
2023-04-15T06:30:45.342Z,19482.6914
2023-04-15T06:31:46.390Z,19488.3086
2023-04-15T06:32:47.837Z,19463.3086
2023-04-15T06:33:49.148Z,19452.6152
2023-04-15T06:34:50.617Z,19460.9238
2023-04-15T06:35:52.111Z,19474.9238
2023-04-15T06:36:53.486Z,19474.7695
2023-04-15T06:37:54.894Z,19469.2305
2023-04-15T06:38:56.346Z,19449.3086
2023-04-15T06:39:57.817Z,19456.8457
2023-04-15T06:40:59.235Z,19465.9238
2023-04-15T06:42:00.711Z,19481.3848
2023-04-15T06:43:02.087Z,19480.0762
2023-04-15T06:44:03.581Z,19453.7695
2023-04-15T06:45:05.831Z,19445.7695
2023-04-15T06:46:06.524Z,19465.1543
2023-04-15T06:47:07.957Z,19468.6152
2023-04-15T06:48:09.264Z,19472.3848
2023-04-15T06:49:10.795Z,19451.5391
2023-04-15T06:50:12.176Z,19441.8457
2023-04-15T06:51:13.686Z,19453.4609
2023-04-15T06:52:15.093Z,19458.0762
2023-04-15T06:53:16.575Z,19469.9238
2023-04-15T06:54:17.942Z,19459.4609
2023-04-15T06:55:19.360Z,19441.1543
2023-04-15T06:56:20.828Z,19448.8457
2023-04-15T06:57:22.333Z,19452.3848
2023-04-15T06:58:23.834Z,19457.3848
2023-04-15T06:59:25.237Z,19466.4609
2023-04-15T07:00:26.604Z,19441.0000
2023-04-15T07:01:28.049Z,19435.0762
2023-04-15T07:02:29.648Z,19447.9238
2023-04-15T07:03:32.623Z,19449.6914
2023-04-15T07:04:32.384Z,19470.3848
2023-04-15T07:05:33.812Z,19441.8457
2023-04-15T07:06:35.153Z,19429.8457
2023-04-15T07:07:36.673Z,19438.1543
2023-04-15T07:08:38.094Z,19438.7695
2023-04-15T07:09:39.538Z,19447.3086
2023-04-15T07:10:40.907Z,19449.6152
2023-04-15T07:11:42.451Z,19433.5391
2023-04-15T07:12:44.308Z,19428.6914
2023-04-15T07:13:45.345Z,19437.3848
2023-04-15T07:14:46.681Z,19436.7695
2023-04-15T07:15:48.137Z,19452.6152
2023-04-15T07:16:49.573Z,19437.1543
2023-04-15T07:17:51.030Z,19418.2305
2023-04-15T07:18:52.524Z,19428.2305
2023-04-15T07:19:53.956Z,19435.6152
2023-04-15T07:20:55.343Z,19433.6152
2023-04-15T07:21:56.795Z,19427.5391
2023-04-15T07:22:58.175Z,19416.1543
2023-04-15T07:23:59.708Z,19425.6152
2023-04-15T07:25:01.289Z,19430.5391
2023-04-15T07:26:02.538Z,19432.8457
2023-04-15T07:27:03.944Z,19432.2305
2023-04-15T07:28:05.415Z,19423.0762
2023-04-15T07:29:06.849Z,19414.4609
2023-04-15T07:30:08.336Z,19430.7695
2023-04-15T07:31:09.748Z,19439.0000
2023-04-15T07:32:11.146Z,19455.6914
2023-04-15T07:33:12.562Z,19437.8457
2023-04-15T07:34:14.085Z,19425.0000
2023-04-15T07:35:15.477Z,19433.2305
2023-04-15T07:36:16.938Z,19448.7695
2023-04-15T07:37:18.312Z,19464.2305
2023-04-15T07:38:19.843Z,19457.5391
2023-04-15T07:39:21.296Z,19437.3086
2023-04-15T07:40:22.798Z,19422.3086
2023-04-15T07:41:24.083Z,19452.3848
2023-04-15T07:42:25.485Z,19460.0000
2023-04-15T07:43:26.891Z,19479.3086
2023-04-15T07:44:28.368Z,19458.6914
2023-04-15T07:45:30.289Z,19443.0000
2023-04-15T07:46:31.254Z,19434.0000
2023-04-15T07:47:32.695Z,19451.5391
2023-04-15T07:48:35.501Z,19471.2305
2023-04-15T07:49:35.523Z,19477.8457
2023-04-15T07:50:37.025Z,19458.8457
2023-04-15T07:51:38.413Z,19444.2305
2023-04-15T07:52:39.922Z,19434.6152
2023-04-15T07:53:41.329Z,19459.5391
2023-04-15T07:54:42.945Z,19481.0000
2023-04-15T07:55:44.197Z,19475.0000
2023-04-15T07:56:45.697Z,19459.4609
2023-04-15T07:57:47.007Z,19434.2305
2023-04-15T07:58:48.551Z,19443.1543
2023-04-15T07:59:50.326Z,19464.1543
2023-04-15T08:00:51.395Z,19486.6914
2023-04-15T08:01:52.849Z,19478.0762
2023-04-15T08:02:54.488Z,19460.3848
2023-04-15T08:03:55.924Z,19423.0000
2023-04-15T08:04:57.385Z,19444.9238
2023-04-15T08:05:58.640Z,19468.8457
2023-04-15T08:07:00.030Z,19483.0000
2023-04-15T08:08:01.488Z,19473.7695
2023-04-15T08:09:03.130Z,19451.6914
2023-04-15T08:10:04.412Z,19418.7695
2023-04-15T08:11:05.809Z,19453.9238
2023-04-15T08:12:07.223Z,19474.1543
2023-04-15T08:13:08.636Z,19486.5391
2023-04-15T08:14:10.139Z,19463.3848
2023-04-15T08:15:11.507Z,19443.0000
2023-04-15T08:16:13.067Z,19426.9238
2023-04-15T08:17:14.760Z,19462.8457
2023-04-15T08:18:15.978Z,19479.1543
2023-04-15T08:19:17.410Z,19483.3086
2023-04-15T08:20:18.813Z,19467.8457
2023-04-15T08:21:20.293Z,19445.2305
2023-04-15T08:22:22.418Z,19420.2305
2023-04-15T08:23:23.162Z,19463.9238
2023-04-15T08:24:24.595Z,19492.7695
2023-04-15T08:25:26.067Z,19488.9238
2023-04-15T08:26:27.523Z,19471.6152
2023-04-15T08:27:29.000Z,19454.3086
2023-04-15T08:28:30.354Z,19428.0000
2023-04-15T08:29:31.767Z,19460.6152
2023-04-15T08:30:33.215Z,19487.1543
2023-04-15T08:31:34.833Z,19483.6152
2023-04-15T08:32:36.173Z,19471.6152
2023-04-15T08:33:37.549Z,19440.3086
2023-04-15T08:34:38.948Z,19417.0762
2023-04-15T08:35:40.467Z,19461.8457
2023-04-15T08:36:41.896Z,19491.2305
2023-04-15T08:37:43.372Z,19486.3086
2023-04-15T08:38:44.736Z,19477.5391
2023-04-15T08:39:46.183Z,19451.0000
2023-04-15T08:40:47.684Z,19440.1543
2023-04-15T08:41:49.121Z,19471.6914
2023-04-15T08:42:50.898Z,19492.3086
2023-04-15T08:43:51.932Z,19487.8457
2023-04-15T08:44:53.443Z,19467.0762
2023-04-15T08:45:54.822Z,19448.2305
2023-04-15T08:46:56.331Z,19469.6914
2023-04-15T08:47:57.803Z,19475.8457
2023-04-15T08:48:59.263Z,19490.6152
2023-04-15T08:50:00.597Z,19482.3848
2023-04-15T08:51:02.112Z,19468.5391
2023-04-15T08:52:03.516Z,19431.0000
2023-04-15T08:53:05.002Z,19453.7695
2023-04-15T08:54:06.352Z,19481.1543
2023-04-15T08:55:07.806Z,19497.3848
2023-04-15T08:56:09.261Z,19484.4609
2023-04-15T08:57:10.731Z,19467.6152
2023-04-15T08:58:12.186Z,19439.8457
2023-04-15T08:59:13.537Z,19464.3848
2023-04-15T09:00:15.104Z,19487.4609
2023-04-15T09:01:16.572Z,19501.3848
2023-04-15T09:02:18.199Z,19479.1543
2023-04-15T09:03:19.513Z,19458.1543
2023-04-15T09:04:20.927Z,19439.8457
2023-04-15T09:05:22.301Z,19465.4609
2023-04-15T09:06:23.782Z,19485.2305
2023-04-15T09:07:25.360Z,19490.0762
2023-04-15T09:08:26.763Z,19475.6152
2023-04-15T09:09:28.042Z,19465.0000
2023-04-15T09:10:29.555Z,19459.2305
2023-04-15T09:11:30.995Z,19475.3848
2023-04-15T09:12:32.475Z,19496.3086
2023-04-15T09:13:33.907Z,19485.3848
2023-04-15T09:14:35.355Z,19467.1543
2023-04-15T09:15:36.689Z,19456.6914
2023-04-15T09:16:38.206Z,19458.1543
2023-04-15T09:17:39.662Z,19476.1543
2023-04-15T09:18:41.134Z,19490.0000
2023-04-15T09:19:42.463Z,19482.6914
2023-04-15T09:20:43.945Z,19462.1543
2023-04-15T09:21:45.349Z,19455.5391
2023-04-15T09:22:46.932Z,19465.6152
2023-04-15T09:23:48.241Z,19472.3086
2023-04-15T09:24:49.680Z,19490.6914
2023-04-15T09:25:51.081Z,19480.6152
2023-04-15T09:26:52.554Z,19468.0762
2023-04-15T09:27:54.006Z,19456.0762
2023-04-15T09:28:55.565Z,19459.0000
2023-04-15T09:29:56.929Z,19477.5391
2023-04-15T09:30:58.335Z,19490.0762
2023-04-15T09:31:59.721Z,19471.5391
2023-04-15T09:33:01.278Z,19458.6914
2023-04-15T09:34:02.879Z,19450.6914
2023-04-15T09:35:06.889Z,19457.5391
2023-04-15T09:36:05.485Z,19475.6152
2023-04-15T09:37:07.813Z,19493.6152
2023-04-15T09:38:08.453Z,19477.3086
2023-04-15T09:39:09.941Z,19458.8457
2023-04-15T09:40:11.839Z,19460.6914
2023-04-15T09:41:12.778Z,19469.2305
2023-04-15T09:42:14.149Z,19485.6914
2023-04-15T09:43:15.663Z,19495.0762
2023-04-15T09:44:17.021Z,19475.5391
2023-04-15T09:45:18.486Z,19463.5391
2023-04-15T09:46:19.923Z,19448.3848
2023-04-15T09:47:21.423Z,19465.8457
2023-04-15T09:48:22.790Z,19486.8457
2023-04-15T09:49:24.306Z,19490.5391
2023-04-15T09:50:25.661Z,19471.1543
2023-04-15T09:51:27.113Z,19460.6152
2023-04-15T09:52:28.541Z,19450.6152
2023-04-15T09:53:31.856Z,19474.3848
2023-04-15T09:54:31.502Z,19479.6152
2023-04-15T09:55:32.888Z,19491.6914
2023-04-15T09:56:34.299Z,19478.1543
2023-04-15T09:57:35.757Z,19463.5391
2023-04-15T09:58:37.217Z,19461.2305
2023-04-15T09:59:38.749Z,19478.2305
2023-04-15T10:00:40.103Z,19492.1543
2023-04-15T10:01:41.612Z,19492.0000
2023-04-15T10:02:43.077Z,19469.3086
2023-04-15T10:03:44.576Z,19461.6152
2023-04-15T10:04:45.842Z,19469.3086
2023-04-15T10:05:47.302Z,19475.3086
2023-04-15T10:06:48.724Z,19487.6152
2023-04-15T10:07:50.190Z,19487.5391
2023-04-15T10:08:51.674Z,19469.8457
2023-04-15T10:09:53.146Z,19458.5391
2023-04-15T10:10:54.474Z,19470.6152
2023-04-15T10:11:55.962Z,19469.5391
2023-04-15T10:12:57.343Z,19489.1543
2023-04-15T10:13:58.923Z,19482.2305
2023-04-15T10:15:00.267Z,19461.3086
2023-04-15T10:16:01.737Z,19458.6152
2023-04-15T10:17:03.119Z,19468.6914
2023-04-15T10:18:04.597Z,19478.2305
2023-04-15T10:19:06.003Z,19493.3848
2023-04-15T10:20:07.490Z,19483.8457
2023-04-15T10:21:08.844Z,19461.8457
2023-04-15T10:22:10.312Z,19454.3848
2023-04-15T10:23:12.890Z,19470.9238
2023-04-15T10:24:13.300Z,19484.0762
2023-04-15T10:25:14.625Z,19499.0762
2023-04-15T10:26:16.074Z,19487.3848
2023-04-15T10:27:17.470Z,19461.9238
2023-04-15T10:28:18.938Z,19451.8457
2023-04-15T10:29:20.438Z,19474.7695
2023-04-15T10:30:21.838Z,19486.3086
2023-04-15T10:31:23.221Z,19494.2305
2023-04-15T10:32:24.736Z,19477.1543
2023-04-15T10:33:26.122Z,19451.0000
2023-04-15T10:34:27.603Z,19453.3848
2023-04-15T10:35:28.973Z,19469.6914
2023-04-15T10:36:30.423Z,19480.6914
2023-04-15T10:37:31.918Z,19486.9238
2023-04-15T10:38:33.312Z,19471.2305
2023-04-15T10:39:34.836Z,19460.3086
2023-04-15T10:40:36.220Z,19455.1543
2023-04-15T10:41:37.585Z,19466.7695
2023-04-15T10:42:39.104Z,19481.8457
2023-04-15T10:43:40.460Z,19490.9238
2023-04-15T10:44:41.933Z,19468.3086
2023-04-15T10:45:43.415Z,19457.9238
2023-04-15T10:46:44.790Z,19469.2305
2023-04-15T10:47:46.265Z,19469.8457
2023-04-15T10:48:47.622Z,19488.8457
2023-04-15T10:49:49.194Z,19479.7695
2023-04-15T10:50:50.582Z,19455.6914
2023-04-15T10:51:51.976Z,19462.6152
2023-04-15T10:52:53.403Z,19472.0000
2023-04-15T10:53:54.852Z,19476.5391
2023-04-15T10:54:56.341Z,19489.3086
2023-04-15T10:55:57.774Z,19481.6152
2023-04-15T10:56:59.141Z,19461.6914
2023-04-15T10:58:00.613Z,19452.6914
2023-04-15T10:59:02.012Z,19467.3086
2023-04-15T11:00:03.525Z,19479.5391
2023-04-15T11:01:05.488Z,19490.4609
2023-04-15T11:02:06.437Z,19475.4609
2023-04-15T11:03:07.991Z,19456.4609
2023-04-15T11:04:09.362Z,19470.2305
2023-04-15T11:05:10.645Z,19476.9238
2023-04-15T11:06:12.128Z,19473.5391
2023-04-15T11:07:13.499Z,19488.7695
2023-04-15T11:08:14.952Z,19472.0762
2023-04-15T11:09:16.361Z,19459.0762
2023-04-15T11:10:17.922Z,19459.3848
2023-04-15T11:11:19.271Z,19462.6152
2023-04-15T11:12:21.371Z,19471.6914
2023-04-15T11:13:22.121Z,19487.4609
2023-04-15T11:14:23.593Z,19473.0762
2023-04-15T11:15:25.060Z,19447.0000
2023-04-15T11:16:26.980Z,19452.0000
2023-04-15T11:17:27.966Z,19466.6152
2023-04-15T11:18:29.338Z,19471.2305
2023-04-15T11:19:30.803Z,19486.3848
2023-04-15T11:20:32.239Z,19480.0000
2023-04-15T11:21:33.684Z,19454.1543